createdAt,value
2022-07-26T05:28:57.037Z,98279.63
2022-07-26T05:34:01.177Z,98274.63
2022-07-26T05:39:05.644Z,98274.72
2022-07-26T05:44:11.482Z,98276.28
2022-07-26T05:49:17.029Z,98280.16
2022-07-26T05:54:25.537Z,98292.56
2022-07-26T05:59:31.259Z,98294.66
2022-07-26T06:04:36.140Z,98292.31
2022-07-26T06:09:40.243Z,98298.22
2022-07-26T06:14:46.069Z,98303.03
2022-07-26T06:19:51.030Z,98307.81
2022-07-26T06:24:55.013Z,98316.31
2022-07-26T06:30:00.411Z,98306.69
2022-07-26T06:35:04.851Z,98323.13
2022-07-26T06:40:10.905Z,98314.19
2022-07-26T06:45:16.959Z,98312.69
2022-07-26T06:50:25.759Z,98318.78
2022-07-26T06:55:29.791Z,98318.16
2022-07-26T07:00:35.535Z,98311.78
2022-07-26T07:05:39.484Z,98305.59
2022-07-26T07:10:43.646Z,98309.81
2022-07-26T07:15:49.622Z,98321.13
2022-07-26T07:20:53.656Z,98312.31
2022-07-26T07:25:57.879Z,98308.75
2022-07-26T07:31:03.769Z,98313.97
2022-07-26T07:36:08.627Z,98316.97
2022-07-26T07:41:12.741Z,98314.81
2022-07-26T07:46:18.207Z,98300.56
2022-07-26T07:51:22.188Z,98305.25
2022-07-26T07:56:26.520Z,98301.31
2022-07-26T08:01:39.554Z,98298.47
2022-07-26T08:06:47.702Z,98297.63
2022-07-26T08:11:55.217Z,98287.41
2022-07-26T08:17:00.959Z,98292.53
2022-07-26T08:22:05.920Z,98289.47
2022-07-26T08:27:10.270Z,98288.03
2022-07-26T08:32:16.115Z,98292.66
2022-07-26T08:37:20.425Z,98283.50
2022-07-26T08:42:25.116Z,98288.13
2022-07-26T08:47:35.384Z,98299.19
2022-07-26T08:52:43.408Z,98301.31
2022-07-26T08:57:47.843Z,98297.47
2022-07-26T09:02:54.896Z,98299.38
2022-07-26T09:07:59.988Z,98292.66
2022-07-26T09:13:04.160Z,98281.22
2022-07-26T09:18:27.028Z,98286.28
2022-07-26T09:23:41.164Z,98281.22
2022-07-26T09:28:45.424Z,98284.81
2022-07-26T09:33:52.466Z,98292.88
2022-07-26T09:38:59.123Z,98276.94
2022-07-26T09:44:06.840Z,98293.25
2022-07-26T09:49:19.836Z,98284.78
2022-07-26T09:54:33.598Z,98284.97
2022-07-26T09:59:37.647Z,98292.03
2022-07-26T10:04:44.491Z,98297.16
2022-07-26T10:09:57.344Z,98304.97
2022-07-26T10:15:01.411Z,98297.91
2022-07-26T10:20:10.649Z,98296.94
2022-07-26T10:25:48.798Z,98297.78
2022-07-26T10:30:53.400Z,98289.25
2022-07-26T10:36:00.505Z,98296.28
2022-07-26T10:41:07.936Z,98294.88
2022-07-26T10:46:28.318Z,98294.28
2022-07-26T10:51:36.500Z,98294.56
2022-07-26T10:56:45.324Z,98298.50
2022-07-26T11:08:54.651Z,98277.41
2022-07-26T11:15:27.764Z,98277.16
2022-07-26T11:21:17.424Z,98272.34
2022-07-26T11:26:26.407Z,98270.66
2022-07-26T11:31:51.534Z,98271.31
2022-07-26T11:37:05.343Z,98257.25
2022-07-26T11:42:21.343Z,98251.03
2022-07-26T11:47:26.701Z,98248.91
2022-07-26T11:52:39.942Z,98241.81
2022-07-26T11:57:49.263Z,98258.63
2022-07-26T12:02:56.060Z,98244.06
2022-07-26T12:08:04.274Z,98242.94
2022-07-26T12:13:12.483Z,98240.66
2022-07-26T12:18:24.519Z,98226.22
2022-07-26T12:23:41.080Z,98227.81
2022-07-26T12:28:46.548Z,98215.56
2022-07-26T12:33:51.070Z,98228.19
2022-07-26T12:38:56.063Z,98229.63
2022-07-26T12:44:01.523Z,98222.91
2022-07-26T12:49:15.636Z,98205.59
2022-07-26T12:54:20.468Z,98209.84
2022-07-26T12:59:42.290Z,98200.22
2022-07-26T13:04:56.874Z,98197.19
2022-07-26T13:10:32.023Z,98193.16
2022-07-26T13:15:35.980Z,98179.22
2022-07-26T13:26:01.831Z,98180.53
2022-07-26T13:27:15.347Z,98172.91
2022-07-26T13:32:27.071Z,98176.91
2022-07-26T13:38:28.491Z,98170.50
2022-07-26T13:44:00.965Z,98170.97
2022-07-26T13:49:44.624Z,98168.41
2022-07-26T13:55:00.068Z,98164.78
2022-07-26T14:00:08.033Z,98176.44
2022-07-26T14:05:55.900Z,98169.25
2022-07-26T14:11:52.553Z,98162.06
2022-07-26T14:16:57.132Z,98153.56
2022-07-26T14:22:19.732Z,98162.47
2022-07-26T14:27:24.891Z,98159.66
2022-07-26T14:32:29.411Z,98159.81
2022-07-26T14:38:04.772Z,98159.06
2022-07-26T14:43:09.600Z,98149.72
2022-07-26T14:56:50.828Z,98138.50
2022-07-26T15:02:06.991Z,98128.94
2022-07-26T15:07:19.176Z,98134.31
2022-07-26T15:12:25.109Z,98124.59
2022-07-26T15:17:30.146Z,98125.81
2022-07-26T15:22:35.232Z,98118.53
2022-07-26T15:27:41.139Z,98116.16
2022-07-26T15:32:45.851Z,98115.78
2022-07-26T15:37:52.038Z,98121.06
2022-07-26T15:42:58.361Z,98107.13
2022-07-26T15:48:17.100Z,98112.69
2022-07-26T15:53:46.451Z,98116.22
2022-07-26T15:58:57.283Z,98102.00
2022-07-26T16:04:11.913Z,98101.13
2022-07-26T16:09:19.719Z,98095.63
2022-07-26T16:14:26.343Z,98090.84
2022-07-26T16:19:31.135Z,98094.91
2022-07-26T16:24:41.327Z,98101.50
2022-07-26T16:29:57.757Z,98097.47
2022-07-26T16:35:01.969Z,98086.59
2022-07-26T16:40:08.282Z,98082.06
2022-07-26T16:45:13.953Z,98082.53
2022-07-26T16:50:27.757Z,98085.25
2022-07-26T16:55:36.351Z,98066.81
2022-07-26T17:00:54.516Z,98069.09
2022-07-26T17:06:06.437Z,98078.22
2022-07-26T17:11:11.580Z,98071.16
2022-07-26T17:16:21.365Z,98074.56
2022-07-26T17:21:29.039Z,98077.66
2022-07-26T17:26:33.438Z,98077.84
2022-07-26T17:31:42.934Z,98084.47
2022-07-26T17:36:46.972Z,98072.28
2022-07-26T17:41:51.415Z,98076.34
2022-07-26T17:46:58.624Z,98081.75
2022-07-26T17:52:02.864Z,98087.31
2022-07-26T17:57:08.409Z,98089.75
2022-07-26T18:02:14.217Z,98087.78
2022-07-26T18:07:19.484Z,98098.59
2022-07-26T18:12:23.512Z,98098.63
2022-07-26T18:17:29.084Z,98100.41
2022-07-26T18:22:33.583Z,98099.38
2022-07-26T18:27:37.751Z,98107.16
2022-07-26T18:32:43.160Z,98107.03
2022-07-26T18:37:47.561Z,98114.88
2022-07-26T18:42:51.603Z,98121.44
2022-07-26T18:47:57.116Z,98115.88
2022-07-26T18:53:04.025Z,98118.91
2022-07-26T18:58:08.599Z,98129.56
2022-07-26T19:03:15.095Z,98131.09
2022-07-26T19:08:19.037Z,98136.78
2022-07-26T19:13:25.951Z,98146.53
2022-07-26T19:18:31.508Z,98151.56
2022-07-26T19:23:36.109Z,98152.03
2022-07-26T19:28:40.313Z,98159.19
2022-07-26T19:33:45.981Z,98167.41
2022-07-26T19:38:50.242Z,98171.59
2022-07-26T19:43:54.492Z,98174.34
2022-07-26T19:49:01.003Z,98182.03
2022-07-26T19:54:05.689Z,98182.66
2022-07-26T19:59:09.904Z,98194.25
2022-07-26T20:04:15.872Z,98193.75
2022-07-26T20:09:20.123Z,98199.69
2022-07-26T20:14:24.577Z,98210.78
2022-07-26T20:19:29.968Z,98205.50
2022-07-26T20:24:35.679Z,98199.38
2022-07-26T20:29:39.798Z,98198.50
2022-07-26T20:34:45.255Z,98206.66
2022-07-26T20:39:49.375Z,98215.81
2022-07-26T20:44:53.824Z,98214.63
2022-07-26T20:50:03.414Z,98205.41
2022-07-26T20:55:09.126Z,98220.19
2022-07-26T21:00:15.028Z,98209.22
2022-07-26T21:05:22.365Z,98204.53
2022-07-26T21:10:30.231Z,98214.50
2022-07-26T21:15:46.518Z,98220.59
2022-07-26T21:20:53.218Z,98227.06
2022-07-26T21:26:00.330Z,98220.53
2022-07-26T21:31:05.258Z,98227.06
2022-07-26T21:36:10.748Z,98234.75
2022-07-26T21:41:15.913Z,98236.91
2022-07-26T21:46:20.190Z,98228.03
2022-07-26T21:51:25.694Z,98232.91
2022-07-26T21:56:29.892Z,98231.66
2022-07-26T22:01:34.165Z,98243.72
2022-07-26T22:06:41.308Z,98238.59
2022-07-26T22:11:45.743Z,98246.28
2022-07-26T22:16:49.850Z,98248.34
2022-07-26T22:21:55.301Z,98247.41
2022-07-26T22:27:54.686Z,98254.34
2022-07-26T22:33:11.900Z,98254.25
2022-07-26T22:38:17.231Z,98251.53
2022-07-26T22:43:21.465Z,98254.41
2022-07-26T22:48:25.399Z,98256.66
2022-07-26T22:53:30.970Z,98256.75
2022-07-26T23:04:37.303Z,98267.75
2022-07-26T23:09:43.191Z,98256.28
2022-07-26T23:14:47.004Z,98261.00
2022-07-26T23:19:51.395Z,98265.75
2022-07-26T23:24:56.893Z,98264.03
2022-07-26T23:30:00.969Z,98262.19
2022-07-26T23:35:05.634Z,98268.66
2022-07-26T23:40:12.841Z,98261.59
2022-07-26T23:45:16.904Z,98266.59
2022-07-26T23:50:24.609Z,98263.28
2022-07-26T23:55:35.607Z,98259.13
